Welcome to the updated website with new and more accurate equipment. Established 2007


Active alerts


No alerts

Mount Mesnard more information Mount Mesnard


Lower Harbor more information Lower Harbor


Visit our other weather sites:

Template documentation
and downloads

And another site


CBI


Nearby METAR Reports

   
KSAW - Sawyer, Michigan
Updated: 28-06-2017 19:58
Overcast  
Overcast  
   Wind: South 11.5 mph
Wind: South 11.5 mph
Temperature: 60.8°F
Dew Point: 59°F
Humidity: 94%
Barometer: 29.71 inHg
Clouds: Overcast
Visibility: 10 mi
Cloud details: Overcast 122 m
KSAW 282358Z 17010KT 10SM OVC004 16/15 A2971
KESC - Escanaba, Michigan
Updated: 28-06-2017 19:56
Overcast  
Overcast  
   Wind: South 9.2 mph
Wind: South 9.2 mph
Temperature: 60.8°F
Dew Point: 60.8°F
Humidity: 100%
Barometer: 29.72 inHg
Clouds: Overcast
Visibility: 9 mi
Cloud details: Overcast 152 m
KESC 282356Z AUTO 17008KT 9SM OVC005 16/16 A2972 RMK AO2 RAB08E51 SLP084 P0000 60004 T01610156 10178 20161 56019
KIMT - Iron Mountain, MI
Updated: 28-06-2017 19:54
Light Rain, Mist, Overcast  
Light Rain, Mist, Overcast  
   Wind: SSE 6.9 mph
Wind: SSE 6.9 mph
Temperature: 62.6°F
Dew Point: 60.8°F
Humidity: 94%
Barometer: 29.68 inHg
Clouds: Overcast
Visibility: 2 mi
Cloud details: Overcast 91 m
KIMT 282354Z AUTO 16006KT 2 1/2SM -RA BR OVC003 17/16 A2968 RMK AO2 SLP051 P0000 60000 T01670156 10178 20167 55014
KGRB - Green Bay, WI
Updated: 28-06-2017 19:53
Overcast  
Overcast  
   Wind: South 11.5 mph
Wind: South 11.5 mph
Temperature: 68°F
Dew Point: 66.2°F
Humidity: 94%
Barometer: 29.69 inHg
Clouds: Overcast
Visibility: 10 mi
Cloud details: Partly Cloudy 366 m,
Mostly Cloudy 732 m,
Overcast 884 m
KGRB 282353Z 17010KT 10SM SCT012 BKN024 OVC029 20/19 A2969 RMK AO2 SLP053 60021 T02000189 10206 20178 55019
KDET - Detroit, MI
Updated: 28-06-2017 19:53
Overcast  
Overcast  
   Wind: SSW 10.4 mph
Wind: SSW 10.4 mph
Temperature: 73.4°F
Dew Point: 51.8°F
Humidity: 47%
Barometer: 29.98 inHg
Clouds: Overcast
Visibility: 10 mi
Cloud details: Overcast 3048 m
KDET 282353Z 20009KT 10SM OVC100 23/11 A2998 RMK AO2 SLP148 T02280106 10250 20228 55012
 

Script developed by  Saratoga-weather.org Adapted for the template by  Weerstation Leuven

You find our weather info also at:

Weather Underground

Midwestern Weather Network

WeatherlinkIP

Citizen Weather Observer Program (CWOP)

Equipment we use:

Weather-station
Davis VP2

Weather-program
Davis Weatherlink.Com

Davis VP2

Davis Weatherlink.Com